This is the latest recevied weather packets stored in our database for station/object WV6L-13. If no packets are shown the sender has not sent any weather packets the latest 1 day(s).
| Time | Temp. | Humidity | Pressure | Rain* | Wind** | Luminosity | Snow |
|---|---|---|---|---|---|---|---|
| 1836274526 | 23.89° C | 49% | 925.9 hPa | - | 0.89 m/s, 112° | - | - |
| 1778071793 | 7.78° C | 56% | 927.3 hPa | - | 1.34 m/s, 99° | - | - |
| 1778071492 | 8.33° C | 55% | 927.2 hPa | - | 0.89 m/s, 77° | - | - |
| 1778071192 | 8.33° C | 56% | 927.2 hPa | - | 0.45 m/s, 66° | - | - |
| 1778070892 | 8.33° C | 56% | 927.2 hPa | - | 0.89 m/s, 74° | - | - |
| 1778070592 | 8.33° C | 56% | 927.3 hPa | - | 0.89 m/s, 75° | - | - |
| 1778070293 | 8.33° C | 56% | 927.1 hPa | - | 0.89 m/s, 73° | - | - |
| 1778069994 | 8.33° C | 57% | 927 hPa | - | 0.89 m/s, 72° | - | - |
| 1778069692 | 8.33° C | 53% | 927.1 hPa | - | 0.45 m/s, 83° | - | - |
| 1778069392 | 8.33° C | 54% | 926.9 hPa | - | 0.89 m/s, 99° | - | - |
| 1778069093 | 8.33° C | 53% | 926.9 hPa | - | 1.34 m/s, 110° | - | - |
| 1778068792 | 8.89° C | 53% | 927 hPa | - | 0.89 m/s, 139° | - | - |
| 1778068492 | 8.33° C | 53% | 927.1 hPa | - | 0.89 m/s, 139° | - | - |
| 1778068193 | 8.89° C | 53% | 927 hPa | - | 0.45 m/s, 97° | - | - |
| 1778067892 | 8.89° C | 51% | 926.9 hPa | - | 0.45 m/s, 123° | - | - |
| 1778067594 | 8.89° C | 50% | 927 hPa | - | 0.89 m/s, 110° | - | - |
| 1778067292 | 9.44° C | 50% | 926.8 hPa | - | 0.89 m/s, 115° | - | - |
| 1778066992 | 8.89° C | 50% | 926.8 hPa | - | 0.45 m/s, 109° | - | - |
| 1778066692 | 9.44° C | 49% | 926.7 hPa | - | 0.45 m/s, 103° | - | - |
| 1778066393 | 9.44° C | 49% | 926.6 hPa | - | 0.89 m/s, 128° | - | - |
| 1778066092 | 9.44° C | 49% | 926.6 hPa | - | 0.89 m/s, 127° | - | - |
| 1778065794 | 10° C | 49% | 926.4 hPa | - | 0.89 m/s, 150° | - | - |
| 1778065493 | 9.44° C | 49% | 926.6 hPa | - | 0.89 m/s, 163° | - | - |
| 1778065193 | 10° C | 48% | 926.6 hPa | - | 0.89 m/s, 117° | - | - |
| 1778064893 | 10° C | 47% | 926.4 hPa | - | 0.89 m/s, 115° | - | - |
* Rain since midnight (hover to see other rain measurements)
** Current wind speed in m/s (hover to see current wind gust speed)